Time;durP1;ratioP1;P1;durP2;ratioP2;P2;SDS_P1;SDS_P2;PMS_P1;PMS_P2;Temp;Humidity;BMP_temperature;BMP_pressure;BME280_temperature;BME280_humidity;BME280_pressure;Samples;Min_cycle;Max_cycle;Signal;HPM_P1;HPM_P2
2022/05/05 00:00:43;;;;;;;8.93;2.73;;;;;;;8.83;39.09;100380.63;4153751;28;20237;-68
2022/05/05 00:03:09;;;;;;;5.50;2.50;;;;;;;8.78;39.17;100385.50;4147915;28;20381;-66
2022/05/05 00:05:36;;;;;;;12.40;2.47;;;;;;;8.79;39.17;100381.03;4157714;28;20251;-68
2022/05/05 00:08:02;;;;;;;9.00;2.70;;;;;;;8.77;39.34;100388.28;4140161;28;20237;-67
2022/05/05 00:16:00;;;;;;;9.43;2.73;;;;;;;8.76;39.07;100373.38;4143452;28;20531;-66
2022/05/05 00:18:26;;;;;;;6.93;2.53;;;;;;;8.81;39.24;100379.09;4156589;28;20231;-67
2022/05/05 00:20:53;;;;;;;8.50;2.60;;;;;;;8.75;40.02;100366.34;4155414;28;20243;-66
2022/05/05 00:23:19;;;;;;;5.00;2.30;;;;;;;8.77;39.42;100367.06;4151954;28;21893;-66
2022/05/05 00:25:46;;;;;;;4.87;2.27;;;;;;;8.76;39.37;100368.88;4142672;28;20305;-68
2022/05/05 00:28:12;;;;;;;8.20;2.70;;;;;;;8.81;39.59;100371.13;4145820;28;20251;-66
2022/05/05 00:30:39;;;;;;;6.73;1.97;;;;;;;8.84;39.10;100373.50;4151642;28;20671;-66
2022/05/05 00:33:05;;;;;;;7.57;2.47;;;;;;;8.83;39.77;100372.69;4151281;28;21368;-66
2022/05/05 00:35:32;;;;;;;9.70;2.20;;;;;;;8.82;39.55;100373.63;4159800;28;20947;-66
2022/05/05 00:37:58;;;;;;;10.67;2.70;;;;;;;8.84;39.30;100371.69;4171869;28;20351;-66
2022/05/05 00:40:25;;;;;;;8.53;2.60;;;;;;;8.84;39.35;100378.81;4185053;28;20346;-66
2022/05/05 00:42:52;;;;;;;9.80;2.50;;;;;;;8.80;39.37;100370.31;4197702;28;21312;-66
2022/05/05 00:45:18;;;;;;;8.97;2.70;;;;;;;8.78;39.31;100374.91;4182413;28;20564;-65
2022/05/05 00:47:45;;;;;;;6.47;2.30;;;;;;;8.77;39.82;100373.22;4142813;28;20345;-66
2022/05/05 00:50:11;;;;;;;7.80;2.47;;;;;;;8.72;39.63;100375.44;4154696;28;20886;-66
2022/05/05 00:52:38;;;;;;;6.57;2.37;;;;;;;8.73;39.30;100366.47;4182741;28;20225;-66
2022/05/05 00:55:05;;;;;;;6.03;2.33;;;;;;;8.72;39.97;100378.09;4192071;28;20240;-65
2022/05/05 00:57:32;;;;;;;6.97;2.57;;;;;;;8.73;39.83;100378.91;4193270;28;20232;-66
2022/05/05 00:59:59;;;;;;;10.30;2.40;;;;;;;8.69;39.73;100374.88;4195908;28;22141;-66
2022/05/05 01:02:26;;;;;;;4.77;2.07;;;;;;;8.71;39.80;100379.06;4189463;28;20321;-66
2022/05/05 01:04:52;;;;;;;6.57;2.40;;;;;;;8.73;39.50;100371.78;4164743;28;20246;-65
2022/05/05 01:07:21;;;;;;;6.27;2.30;;;;;;;8.64;39.62;100378.75;4161212;28;21312;-65
2022/05/05 01:09:48;;;;;;;16.53;2.77;;;;;;;8.69;39.75;100375.72;4157486;28;20239;-65
2022/05/05 01:12:15;;;;;;;8.73;2.67;;;;;;;8.64;39.18;100373.47;4177378;28;22537;-65
2022/05/05 01:14:41;;;;;;;8.73;2.70;;;;;;;8.61;39.75;100363.09;4162005;28;20676;-67
2022/05/05 01:17:08;;;;;;;8.90;2.80;;;;;;;8.66;39.77;100375.97;4172286;28;21514;-66
2022/05/05 01:19:35;;;;;;;6.07;2.40;;;;;;;8.68;39.50;100366.06;4162431;28;20303;-66
2022/05/05 01:22:03;;;;;;;5.00;2.23;;;;;;;8.79;39.30;100373.09;4159841;28;20266;-67
2022/05/05 01:30:00;;;;;;;6.67;2.20;;;;;;;8.68;39.90;100367.88;4163945;28;21736;-65
2022/05/05 01:32:31;;;;;;;5.43;2.20;;;;;;;8.67;39.64;100361.75;4153844;28;20261;-65
2022/05/05 01:34:58;;;;;;;6.63;2.50;;;;;;;8.69;39.79;100365.09;4164526;28;21542;-66
2022/05/05 01:37:24;;;;;;;9.27;2.83;;;;;;;8.70;39.20;100360.63;4137932;28;23429;-66
2022/05/05 01:39:51;;;;;;;4.00;2.13;;;;;;;8.62;39.50;100364.78;4153097;28;20290;-65
2022/05/05 01:42:18;;;;;;;6.83;1.90;;;;;;;8.66;40.15;100366.22;4152923;28;20230;-66
2022/05/05 01:44:44;;;;;;;8.40;2.33;;;;;;;8.64;39.42;100369.97;4175277;28;20288;-66
2022/05/05 01:47:11;;;;;;;8.40;2.23;;;;;;;8.66;39.52;100373.31;4149491;28;20254;-66
2022/05/05 01:49:37;;;;;;;5.67;2.37;;;;;;;8.72;39.21;100370.13;4158064;28;21254;-67
2022/05/05 01:52:10;;;;;;;7.23;2.43;;;;;;;8.81;39.08;100377.28;4158489;28;26647;-65
2022/05/05 01:54:38;;;;;;;8.47;2.43;;;;;;;8.84;39.09;100363.72;4168102;28;20922;-66
2022/05/05 01:57:05;;;;;;;9.93;2.30;;;;;;;8.80;38.75;100367.66;4157970;28;22627;-66
2022/05/05 01:59:33;;;;;;;8.43;2.10;;;;;;;8.78;39.23;100369.59;4176977;28;22049;-65
2022/05/05 02:02:00;;;;;;;6.17;2.10;;;;;;;8.95;38.64;100375.22;4158653;28;21949;-66
2022/05/05 02:04:27;;;;;;;10.23;2.03;;;;;;;8.76;38.85;100374.19;4160584;28;20273;-65
2022/05/05 02:06:53;;;;;;;7.67;2.13;;;;;;;8.79;39.00;100371.25;4149777;28;20248;-66
2022/05/05 02:09:20;;;;;;;7.27;2.10;;;;;;;8.85;39.00;100378.69;4162030;28;20247;-66
2022/05/05 02:11:46;;;;;;;6.93;2.20;;;;;;;9.00;38.14;100365.03;4155733;28;23511;-65
2022/05/05 02:14:13;;;;;;;6.77;2.27;;;;;;;9.01;37.76;100374.66;4174390;28;20225;-66
2022/05/05 02:16:40;;;;;;;5.70;2.10;;;;;;;9.01;38.22;100374.66;4156591;28;20243;-66
2022/05/05 02:19:06;;;;;;;7.20;2.37;;;;;;;8.96;38.68;100374.25;4149677;28;20246;-67
2022/05/05 02:21:33;;;;;;;4.33;2.10;;;;;;;8.84;38.30;100357.59;4160894;28;20294;-66
2022/05/05 02:23:59;;;;;;;7.50;2.40;;;;;;;8.82;38.65;100365.69;4157165;28;20319;-67
2022/05/05 02:26:26;;;;;;;7.07;1.90;;;;;;;8.89;38.41;100365.97;4155803;28;20328;-68
2022/05/05 02:28:52;;;;;;;4.87;2.10;;;;;;;8.98;38.24;100365.16;4144792;28;20300;-65
2022/05/05 02:31:19;;;;;;;6.00;2.23;;;;;;;8.99;37.85;100358.03;4170105;28;20305;-66
2022/05/05 02:33:45;;;;;;;10.37;2.40;;;;;;;8.93;38.59;100361.25;4156777;28;20432;-67
2022/05/05 02:38:57;;;;;;;4.60;2.10;;;;;;;8.96;38.78;100360.97;4162472;28;20309;-66
2022/05/05 02:41:24;;;;;;;4.77;2.53;;;;;;;8.98;38.41;100357.19;4161445;28;20243;-66
2022/05/05 02:43:50;;;;;;;12.87;2.73;;;;;;;8.97;38.89;100358.19;4159323;28;20239;-65
2022/05/05 02:46:17;;;;;;;7.90;2.50;;;;;;;9.14;37.74;100356.69;4152436;28;20242;-67
2022/05/05 02:48:44;;;;;;;7.00;2.40;;;;;;;9.02;38.03;100358.63;4170840;28;20513;-67
2022/05/05 02:51:10;;;;;;;7.73;2.37;;;;;;;9.00;38.88;100365.03;4167391;28;20334;-66
2022/05/05 02:56:22;;;;;;;6.23;2.20;;;;;;;8.94;38.46;100355.78;4166986;28;21879;-65
2022/05/05 02:58:48;;;;;;;8.87;2.13;;;;;;;8.97;37.94;100366.16;4162973;28;23095;-66
2022/05/05 03:01:15;;;;;;;6.27;2.30;;;;;;;8.99;38.26;100366.00;4165712;28;20592;-65
2022/05/05 03:03:42;;;;;;;10.53;2.23;;;;;;;9.00;37.37;100370.34;4173995;28;20620;-66
2022/05/05 03:06:08;;;;;;;7.30;2.43;;;;;;;9.01;37.43;100367.56;4159420;28;20329;-65
2022/05/05 03:08:35;;;;;;;18.30;3.07;;;;;;;9.01;37.80;100372.00;4161783;28;20226;-66
2022/05/05 03:11:01;;;;;;;13.67;2.40;;;;;;;9.08;37.54;100371.34;4171061;28;20249;-65
2022/05/05 03:13:28;;;;;;;11.03;2.60;;;;;;;9.05;38.34;100370.78;4157524;28;21227;-66
2022/05/05 03:15:55;;;;;;;11.03;2.13;;;;;;;9.07;37.64;100368.81;4157934;28;21623;-66
2022/05/05 03:18:22;;;;;;;10.10;2.67;;;;;;;8.87;38.25;100360.81;4163614;28;20237;-67
2022/05/05 03:20:49;;;;;;;5.87;2.30;;;;;;;8.90;38.23;100359.72;4163580;28;20246;-67
2022/05/05 03:23:15;;;;;;;14.83;2.40;;;;;;;8.86;38.23;100364.44;4162841;28;20307;-67
2022/05/05 03:25:42;;;;;;;8.33;2.17;;;;;;;8.90;38.31;100366.81;4157121;28;21546;-67
2022/05/05 03:28:08;;;;;;;7.47;2.23;;;;;;;8.96;37.83;100367.13;4168196;28;20239;-68
2022/05/05 03:30:34;;;;;;;6.87;2.20;;;;;;;9.02;38.52;100366.56;4173928;28;20345;-67
2022/05/05 03:33:01;;;;;;;5.10;2.17;;;;;;;8.94;38.22;100369.06;4181489;28;20256;-68
2022/05/05 03:35:28;;;;;;;8.83;2.60;;;;;;;8.92;38.68;100365.72;4173783;28;21757;-67
2022/05/05 03:37:54;;;;;;;7.03;2.30;;;;;;;8.94;38.28;100374.38;4167326;28;21307;-67
2022/05/05 03:40:21;;;;;;;7.03;2.30;;;;;;;8.93;38.33;100374.53;4187332;28;21226;-67
2022/05/05 03:42:48;;;;;;;9.13;2.30;;;;;;;8.85;38.84;100373.38;4185404;28;20234;-68
2022/05/05 03:45:15;;;;;;;8.70;2.50;;;;;;;8.85;38.85;100368.06;4188888;28;20242;-68
2022/05/05 03:47:41;;;;;;;11.33;2.40;;;;;;;8.82;38.53;100370.97;4213331;28;21376;-68
2022/05/05 03:50:08;;;;;;;9.97;1.93;;;;;;;8.81;39.14;100379.94;4206917;28;20233;-69
2022/05/05 03:52:35;;;;;;;9.87;2.57;;;;;;;8.75;39.00;100376.97;4188889;28;20295;-69
2022/05/05 03:55:01;;;;;;;8.17;2.23;;;;;;;8.77;39.08;100373.22;4220199;28;20280;-68
2022/05/05 03:57:28;;;;;;;8.57;2.30;;;;;;;8.74;38.91;100372.66;4208014;28;20300;-68
2022/05/05 03:59:58;;;;;;;9.73;2.60;;;;;;;8.72;39.42;100375.44;4210570;28;20233;-69
2022/05/05 04:02:25;;;;;;;12.70;2.50;;;;;;;8.71;38.85;100373.75;4196729;28;20516;-68
2022/05/05 04:04:52;;;;;;;7.37;2.00;;;;;;;8.68;39.03;100378.47;4220215;28;25603;-68
2022/05/05 04:07:18;;;;;;;10.20;2.50;;;;;;;8.66;39.61;100387.44;4204388;28;20511;-68
2022/05/05 04:09:45;;;;;;;6.83;2.43;;;;;;;8.76;39.35;100382.16;4226024;28;24317;-67
2022/05/05 04:12:12;;;;;;;8.83;2.60;;;;;;;8.83;39.11;100387.75;4212144;28;20359;-68
2022/05/05 04:14:39;;;;;;;9.87;2.53;;;;;;;8.84;38.96;100384.97;4224687;28;20762;-68
2022/05/05 04:17:05;;;;;;;6.70;2.40;;;;;;;8.82;38.77;100381.59;4194126;28;20236;-67
2022/05/05 04:19:32;;;;;;;6.60;2.33;;;;;;;8.86;39.63;100382.19;4212453;28;20626;-69
2022/05/05 04:21:59;;;;;;;9.37;2.93;;;;;;;8.82;39.29;100384.25;4214019;28;20235;-67
2022/05/05 04:24:25;;;;;;;9.57;2.77;;;;;;;8.84;40.28;100382.31;4213157;28;20678;-67
2022/05/05 04:26:52;;;;;;;13.17;2.63;;;;;;;8.94;39.68;100394.75;4203794;28;20561;-67
2022/05/05 04:29:19;;;;;;;12.40;3.17;;;;;;;8.92;39.03;100383.44;4208100;28;20237;-65
2022/05/05 04:31:49;;;;;;;17.87;2.80;;;;;;;8.90;39.51;100385.38;4196728;28;20419;-66
2022/05/05 04:34:16;;;;;;;11.60;3.20;;;;;;;8.94;39.32;100389.44;4204249;28;20243;-65
2022/05/05 04:36:43;;;;;;;17.13;3.30;;;;;;;8.95;39.50;100384.03;4177593;28;20461;-67
2022/05/05 04:39:09;;;;;;;18.63;3.10;;;;;;;8.96;39.64;100387.50;4178486;28;21620;-68
2022/05/05 04:41:36;;;;;;;12.63;3.00;;;;;;;8.97;39.74;100386.56;4173966;28;25181;-67
2022/05/05 04:44:03;;;;;;;14.90;3.10;;;;;;;9.03;39.77;100388.66;4181635;28;20241;-68
2022/05/05 04:46:30;;;;;;;11.40;2.80;;;;;;;9.03;39.61;100393.94;4180209;28;20233;-66
2022/05/05 04:48:56;;;;;;;14.37;3.00;;;;;;;9.08;39.22;100391.72;4160515;28;20226;-67
2022/05/05 04:51:23;;;;;;;7.30;2.70;;;;;;;9.13;39.46;100392.19;4185623;28;20748;-67
2022/05/05 04:53:50;;;;;;;7.17;2.90;;;;;;;9.11;39.50;100382.66;4166412;28;20245;-67
2022/05/05 04:56:16;;;;;;;17.00;3.60;;;;;;;9.15;39.47;100387.53;4184389;28;20281;-67
2022/05/05 04:58:43;;;;;;;12.40;2.80;;;;;;;9.19;39.78;100391.63;4172513;28;22655;-68
2022/05/05 05:01:09;;;;;;;16.87;2.77;;;;;;;9.29;39.38;100383.66;4187069;28;20241;-66
2022/05/05 05:03:41;;;;;;;13.40;3.20;;;;;;;9.27;39.67;100391.78;4210153;28;25046;-68
2022/05/05 05:06:09;;;;;;;8.77;3.03;;;;;;;9.38;39.35;100397.94;4233280;28;21169;-69
2022/05/05 05:08:54;;;;;;;11.87;3.20;;;;;;;9.46;38.45;100398.09;4194442;28;20271;-71
2022/05/05 05:11:23;;;;;;;8.93;3.37;;;;;;;9.55;38.21;100399.06;4176913;28;20236;-69
2022/05/05 05:13:50;;;;;;;8.37;2.83;;;;;;;9.57;38.91;100405.06;4168098;28;20597;-67
2022/05/05 05:16:17;;;;;;;8.17;2.40;;;;;;;9.62;38.57;100398.38;4160249;28;20603;-70
2022/05/05 05:19:05;;;;;;;14.47;2.60;;;;;;;9.66;38.98;100402.41;4193160;28;20314;-68
2022/05/05 05:21:31;;;;;;;16.57;3.33;;;;;;;9.74;39.18;100404.38;4188814;28;21627;-68
2022/05/05 05:23:59;;;;;;;11.53;2.90;;;;;;;9.83;37.99;100400.03;4196678;28;20710;-68
2022/05/05 05:26:25;;;;;;;9.17;3.30;;;;;;;9.86;38.10;100397.09;4185713;28;20304;-68
2022/05/05 05:28:52;;;;;;;12.83;3.20;;;;;;;9.91;38.74;100405.50;4203449;28;20233;-69
2022/05/05 05:31:20;;;;;;;15.17;2.60;;;;;;;10.04;37.84;100407.84;4160340;28;20235;-66
2022/05/05 05:33:46;;;;;;;13.27;3.00;;;;;;;10.18;38.14;100419.84;4156397;28;20274;-67
2022/05/05 05:36:13;;;;;;;8.23;2.87;;;;;;;10.25;37.88;100407.66;4176264;28;25349;-67
2022/05/05 05:38:40;;;;;;;8.23;2.83;;;;;;;10.42;37.85;100414.09;4185250;28;20238;-68
2022/05/05 05:41:08;;;;;;;15.43;3.40;;;;;;;10.64;37.11;100411.09;4189703;28;20855;-69
2022/05/05 05:43:36;;;;;;;11.40;3.90;;;;;;;10.75;37.70;100420.72;4185127;28;20230;-67
2022/05/05 05:46:02;;;;;;;20.20;3.50;;;;;;;10.70;37.59;100415.84;4206207;28;20238;-70
2022/05/05 05:48:29;;;;;;;14.47;3.20;;;;;;;10.72;37.48;100411.22;4198993;28;20285;-68
2022/05/05 05:50:56;;;;;;;18.43;3.67;;;;;;;10.77;38.20;100413.44;4206141;28;20218;-69
2022/05/05 05:53:23;;;;;;;13.43;3.73;;;;;;;10.98;37.34;100411.34;4199916;28;20234;-71
2022/05/05 05:55:49;;;;;;;21.53;3.90;;;;;;;11.11;37.52;100407.50;4187053;28;20226;-70
2022/05/05 05:58:16;;;;;;;11.07;3.53;;;;;;;11.31;37.07;100411.72;4180851;28;20254;-71
2022/05/05 06:00:43;;;;;;;10.93;3.10;;;;;;;11.24;36.49;100408.00;4217587;28;20252;-67
2022/05/05 06:05:54;;;;;;;15.60;3.30;;;;;;;11.59;36.40;100414.34;4187412;28;21232;-68
2022/05/05 06:08:22;;;;;;;12.57;3.47;;;;;;;11.62;36.61;100419.34;4167580;28;20675;-67
2022/05/05 06:10:49;;;;;;;21.03;3.03;;;;;;;12.11;35.24;100421.66;4188960;28;20358;-69
2022/05/05 06:13:21;;;;;;;9.33;3.50;;;;;;;12.80;34.85;100419.88;4185675;28;20321;-67
2022/05/05 06:15:48;;;;;;;12.87;3.37;;;;;;;13.94;32.46;100430.03;4199315;28;20241;-67
2022/05/05 06:18:15;;;;;;;12.00;3.37;;;;;;;13.91;31.90;100430.38;4211425;28;20539;-68
2022/05/05 06:20:43;;;;;;;16.80;3.60;;;;;;;13.54;32.71;100434.34;4198004;28;20289;-70
2022/05/05 06:23:09;;;;;;;20.77;3.53;;;;;;;13.32;33.40;100418.94;4202654;28;20230;-67
2022/05/05 06:25:36;;;;;;;13.90;3.67;;;;;;;12.87;34.81;100426.25;4198307;28;20416;-68
2022/05/05 06:28:04;;;;;;;12.40;3.23;;;;;;;12.62;35.43;100426.16;4174026;28;20309;-69
2022/05/05 06:30:30;;;;;;;14.77;2.90;;;;;;;12.59;35.33;100423.78;4198107;28;22441;-68
2022/05/05 06:32:57;;;;;;;15.33;3.53;;;;;;;12.36;36.08;100420.81;4190886;28;25200;-68
2022/05/05 06:35:24;;;;;;;13.80;3.27;;;;;;;12.56;35.26;100421.44;4188608;28;21280;-66
2022/05/05 06:37:51;;;;;;;19.03;4.00;;;;;;;12.98;35.82;100422.47;4203584;28;20249;-68
2022/05/05 06:40:18;;;;;;;20.30;3.80;;;;;;;13.21;35.01;100418.22;4206734;28;20278;-67
2022/05/05 06:42:45;;;;;;;18.63;3.07;;;;;;;12.93;35.37;100425.63;4212747;28;20401;-71
2022/05/05 06:45:11;;;;;;;17.00;3.10;;;;;;;13.01;35.90;100422.97;4199277;28;21390;-65
2022/05/05 06:47:38;;;;;;;16.13;3.87;;;;;;;13.16;35.74;100430.38;4193302;28;20403;-75
2022/05/05 06:50:05;;;;;;;11.47;3.10;;;;;;;12.98;35.97;100423.31;4196355;28;21570;-67
2022/05/05 06:52:32;;;;;;;14.40;3.17;;;;;;;12.89;35.91;100429.59;4178984;28;23798;-66
2022/05/05 06:55:07;;;;;;;13.67;2.93;;;;;;;13.19;35.80;100435.41;4170606;28;20226;-67
2022/05/05 06:57:34;;;;;;;9.67;3.03;;;;;;;13.37;36.17;100438.84;4178800;28;26018;-68
2022/05/05 07:00:01;;;;;;;19.33;3.30;;;;;;;13.28;35.76;100443.31;4177758;28;21827;-68
2022/05/05 07:02:28;;;;;;;10.60;2.70;;;;;;;13.49;35.31;100442.03;4184639;28;21386;-68
2022/05/05 07:07:40;;;;;;;16.27;3.20;;;;;;;13.35;35.80;100448.84;4189944;28;20236;-70
2022/05/05 07:12:52;;;;;;;15.87;3.30;;;;;;;13.41;35.58;100445.50;4210980;28;20296;-72
2022/05/05 07:15:19;;;;;;;9.00;2.87;;;;;;;13.63;35.26;100443.22;4187574;28;20264;-66
2022/05/05 07:17:46;;;;;;;12.27;3.10;;;;;;;14.57;33.80;100452.59;4180652;28;20300;-65
2022/05/05 07:20:13;;;;;;;16.03;3.00;;;;;;;15.18;32.73;100453.75;4201044;28;20244;-69
2022/05/05 07:22:40;;;;;;;14.83;3.10;;;;;;;15.47;32.95;100452.25;4193394;28;20265;-69
2022/05/05 07:25:07;;;;;;;11.50;3.30;;;;;;;15.82;31.31;100455.41;4192405;28;25438;-69
2022/05/05 07:27:34;;;;;;;12.00;2.93;;;;;;;15.75;32.03;100455.28;4190981;28;20233;-66
2022/05/05 07:30:00;;;;;;;13.17;3.40;;;;;;;15.75;31.25;100457.97;4198391;28;20238;-69
2022/05/05 07:32:28;;;;;;;17.37;3.07;;;;;;;15.72;31.73;100452.13;4206012;28;23402;-72
2022/05/05 07:34:59;;;;;;;9.40;3.27;;;;;;;15.62;32.73;100447.81;4213394;28;20242;-70
2022/05/05 07:37:25;;;;;;;14.23;3.00;;;;;;;15.11;33.06;100439.38;4199424;28;20237;-72
2022/05/05 07:39:52;;;;;;;12.20;3.17;;;;;;;14.99;33.58;100444.28;4214438;28;22589;-72
2022/05/05 07:42:19;;;;;;;10.50;3.77;;;;;;;15.02;33.82;100444.94;4203535;28;20833;-69
2022/05/05 07:44:45;;;;;;;8.13;3.33;;;;;;;14.86;33.78;100448.50;4202362;28;25631;-74
2022/05/05 07:47:12;;;;;;;17.03;3.10;;;;;;;15.02;33.23;100443.09;4177062;28;20279;-67
2022/05/05 07:49:38;;;;;;;15.30;3.20;;;;;;;15.02;33.74;100440.41;4171137;28;20341;-68
2022/05/05 07:52:06;;;;;;;13.37;3.30;;;;;;;15.38;33.17;100440.75;4194827;28;20236;-71
2022/05/05 07:54:35;;;;;;;9.63;3.47;;;;;;;16.04;32.43;100446.53;4209679;28;20227;-69
2022/05/05 07:57:02;;;;;;;9.03;3.13;;;;;;;16.83;31.11;100454.19;4183148;28;20316;-69
2022/05/05 07:59:29;;;;;;;12.73;3.70;;;;;;;17.84;29.63;100458.91;4176048;28;22979;-69
2022/05/05 08:01:57;;;;;;;13.00;3.00;;;;;;;18.28;28.14;100461.38;4187821;28;21681;-69
2022/05/05 08:04:24;;;;;;;12.93;3.33;;;;;;;18.14;28.46;100459.59;4174740;28;20243;-68
2022/05/05 08:06:51;;;;;;;11.50;3.43;;;;;;;17.93;28.78;100455.06;4173446;28;20344;-68
2022/05/05 08:09:17;;;;;;;15.80;3.80;;;;;;;17.32;29.56;100457.28;4178180;28;22364;-69
2022/05/05 08:11:44;;;;;;;19.17;3.83;;;;;;;16.88;30.78;100459.84;4199460;28;20249;-69
2022/05/05 08:14:11;;;;;;;24.47;3.40;;;;;;;17.44;30.68;100459.31;4213768;28;20229;-70
2022/05/05 08:16:38;;;;;;;12.53;2.97;;;;;;;18.10;29.20;100464.56;4197436;28;20331;-68
2022/05/05 08:19:06;;;;;;;9.97;2.90;;;;;;;18.29;28.47;100459.53;4215662;28;20239;-69
2022/05/05 08:21:33;;;;;;;9.03;3.13;;;;;;;18.76;27.72;100456.16;4214635;28;21385;-69
2022/05/05 08:29:36;;;;;;;8.33;2.90;;;;;;;19.02;28.15;100456.53;4174731;28;20249;-70
2022/05/05 08:32:04;;;;;;;8.07;2.97;;;;;;;18.41;28.88;100460.66;4201872;28;20301;-71
2022/05/05 08:34:31;;;;;;;14.07;3.40;;;;;;;18.30;29.63;100453.94;4192859;28;21287;-69
2022/05/05 08:36:57;;;;;;;25.03;3.73;;;;;;;18.10;29.68;100452.97;4200265;28;20873;-69
2022/05/05 08:39:24;;;;;;;14.03;3.47;;;;;;;18.24;29.47;100454.75;4173984;28;20241;-68
2022/05/05 08:41:58;;;;;;;11.90;3.17;;;;;;;18.26;29.30;100452.69;4177931;28;20237;-69
2022/05/05 08:44:25;;;;;;;9.93;3.20;;;;;;;18.30;29.42;100440.47;4216514;28;20236;-70
2022/05/05 08:46:53;;;;;;;14.87;3.50;;;;;;;17.94;30.68;100445.97;4191647;28;20237;-70
2022/05/05 08:49:23;;;;;;;12.43;3.40;;;;;;;18.05;30.25;100450.84;4192594;28;20322;-71
2022/05/05 08:51:52;;;;;;;12.00;2.93;;;;;;;18.07;30.01;100448.78;4213625;28;20279;-71
2022/05/05 08:54:21;;;;;;;11.43;3.10;;;;;;;17.97;30.48;100447.44;4190901;28;20288;-70
2022/05/05 08:56:48;;;;;;;12.43;3.00;;;;;;;18.29;29.77;100449.59;4191128;28;25892;-72
2022/05/05 08:59:19;;;;;;;16.03;3.37;;;;;;;17.87;31.02;100445.91;4178103;28;20735;-69
2022/05/05 09:01:45;;;;;;;12.80;3.23;;;;;;;17.61;31.04;100446.44;4186279;28;20245;-68
2022/05/05 09:04:12;;;;;;;9.17;3.03;;;;;;;17.84;31.43;100453.53;4199693;28;21099;-63
2022/05/05 09:06:52;;;;;;;8.87;3.40;;;;;;;17.94;31.96;100437.91;4234451;28;20241;-69
2022/05/05 09:09:32;;;;;;;14.03;3.00;;;;;;;17.96;31.33;100443.06;4186872;28;20310;-70
2022/05/05 09:12:15;;;;;;;14.83;2.80;;;;;;;17.82;31.66;100444.84;4173183;28;20841;-71
2022/05/05 09:14:53;;;;;;;8.07;2.80;;;;;;;17.93;31.82;100447.00;4181508;28;20309;-70
2022/05/05 09:17:23;;;;;;;27.40;3.27;;;;;;;17.79;33.22;100437.91;4172059;28;20295;-70
2022/05/05 09:19:54;;;;;;;17.17;3.00;;;;;;;17.93;32.18;100447.00;4184686;28;25909;-70
2022/05/05 09:22:24;;;;;;;17.50;3.13;;;;;;;18.37;31.91;100445.91;4177964;28;21675;-70
2022/05/05 09:24:52;;;;;;;11.37;3.00;;;;;;;18.16;31.64;100448.66;4189851;28;20243;-72
2022/05/05 09:27:24;;;;;;;10.83;2.70;;;;;;;17.78;32.68;100438.94;4160360;28;20234;-72
2022/05/05 09:30:13;;;;;;;14.93;2.60;;;;;;;17.98;32.08;100441.88;4175156;28;20470;-69
2022/05/05 09:32:41;;;;;;;11.43;2.70;;;;;;;17.80;32.41;100433.38;4172833;28;20247;-69
2022/05/05 09:35:08;;;;;;;7.20;2.63;;;;;;;17.87;32.67;100437.00;4204686;28;20965;-70
2022/05/05 09:37:36;;;;;;;11.40;2.53;;;;;;;18.20;31.97;100437.28;4169823;28;20679;-69
2022/05/05 09:40:06;;;;;;;9.93;2.80;;;;;;;18.32;31.27;100437.59;4190096;28;20334;-70
2022/05/05 09:42:42;;;;;;;15.77;2.63;;;;;;;17.87;32.05;100426.25;4167535;28;20316;-68
2022/05/05 09:45:18;;;;;;;11.87;2.70;;;;;;;18.02;31.57;100435.06;4187290;28;20322;-72
2022/05/05 09:47:50;;;;;;;15.03;2.73;;;;;;;18.34;31.27;100428.28;4191635;28;20342;-70
2022/05/05 09:50:21;;;;;;;16.37;3.10;;;;;;;18.02;31.29;100428.84;4183768;28;20234;-70
2022/05/05 09:58:26;;;;;;;5.50;2.47;;;;;;;18.34;30.42;100422.06;4217076;28;20413;-69
2022/05/05 10:01:04;;;;;;;9.30;2.33;;;;;;;18.39;30.63;100419.59;4227617;28;20233;-69
2022/05/05 10:06:23;;;;;;;14.47;2.50;;;;;;;18.49;30.33;100421.94;4217327;28;20247;-70
2022/05/05 10:08:58;;;;;;;13.67;2.80;;;;;;;18.59;29.57;100425.16;4195977;28;20305;-69
2022/05/05 10:11:25;;;;;;;17.87;2.87;;;;;;;18.63;29.89;100425.56;4196725;28;25540;-71
2022/05/05 10:13:52;;;;;;;8.80;2.60;;;;;;;18.59;30.08;100429.69;4172756;28;20230;-69
2022/05/05 10:16:19;;;;;;;10.80;2.33;;;;;;;18.84;29.48;100428.22;4181207;28;20251;-70
2022/05/05 10:18:47;;;;;;;8.97;2.60;;;;;;;19.18;29.13;100418.41;4167611;28;20238;-70
2022/05/05 10:21:26;;;;;;;7.17;3.17;;;;;;;19.28;28.17;100426.13;4176465;28;20241;-69
2022/05/05 10:24:03;;;;;;;10.97;2.03;;;;;;;19.03;28.34;100410.44;4167045;28;20250;-69
2022/05/05 10:26:29;;;;;;;6.63;2.47;;;;;;;18.97;29.45;100406.72;4160147;28;21387;-67
2022/05/05 10:28:57;;;;;;;11.67;2.93;;;;;;;19.21;29.22;100409.09;4181709;28;20986;-69
2022/05/05 10:31:29;;;;;;;8.70;2.50;;;;;;;19.46;28.24;100422.88;4192247;28;20233;-70
2022/05/05 10:34:07;;;;;;;9.27;2.30;;;;;;;19.35;27.77;100406.22;4197235;28;20341;-69
2022/05/05 10:36:35;;;;;;;14.37;2.70;;;;;;;19.34;28.45;100409.97;4206325;28;21624;-72
2022/05/05 10:39:18;;;;;;;7.90;2.83;;;;;;;19.29;28.79;100412.44;4222739;28;20241;-70
2022/05/05 10:41:45;;;;;;;10.27;2.07;;;;;;;19.63;27.48;100418.75;4211184;28;20237;-69
2022/05/05 10:44:26;;;;;;;11.33;2.50;;;;;;;19.60;27.97;100408.38;4237050;28;20230;-70
2022/05/05 10:46:57;;;;;;;8.73;2.53;;;;;;;19.62;27.96;100409.00;4234558;28;20472;-69
2022/05/05 10:49:41;;;;;;;10.63;2.63;;;;;;;19.96;27.69;100420.69;4187246;28;21710;-72
2022/05/05 10:52:08;;;;;;;12.33;2.67;;;;;;;20.30;26.93;100416.94;4199333;28;20311;-70
2022/05/05 10:54:36;;;;;;;8.00;2.40;;;;;;;20.41;27.31;100419.00;4192769;28;20324;-74
2022/05/05 10:57:27;;;;;;;11.13;2.60;;;;;;;20.12;27.43;100416.75;4198859;28;20389;-71
2022/05/05 11:00:07;;;;;;;14.17;2.50;;;;;;;19.97;28.01;100412.38;4223029;28;20817;-71
2022/05/05 11:02:35;;;;;;;13.70;2.43;;;;;;;20.24;27.12;100413.19;4211193;28;20232;-72
2022/05/05 11:05:30;;;;;;;4.97;2.50;;;;;;;20.03;27.47;100421.53;4238270;28;20257;-71
2022/05/05 11:08:09;;;;;;;10.07;2.50;;;;;;;19.89;28.23;100406.34;4207188;28;21820;-72
2022/05/05 11:10:46;;;;;;;9.90;3.10;;;;;;;19.87;28.44;100405.72;4214351;28;20240;-78
2022/05/05 11:13:35;;;;;;;8.83;3.17;;;;;;;20.09;27.92;100414.44;4195769;28;20252;-73
2022/05/05 11:22:07;;;;;;;16.53;3.47;;;;;;;19.70;28.90;100400.72;4216344;28;20243;-70
2022/05/05 11:24:34;;;;;;;11.60;3.10;;;;;;;19.67;28.97;100394.88;4202011;28;21238;-68
2022/05/05 11:27:01;;;;;;;9.03;3.07;;;;;;;19.70;29.15;100399.91;4222420;28;20370;-70
2022/05/05 11:29:31;;;;;;;11.60;3.17;;;;;;;19.76;29.35;100413.41;4213219;28;20503;-69
2022/05/05 11:32:02;;;;;;;10.30;3.00;;;;;;;20.07;29.22;100400.34;4225097;28;20243;-69
2022/05/05 11:34:36;;;;;;;12.40;3.20;;;;;;;20.38;28.48;100403.19;4201054;28;20250;-71
2022/05/05 11:37:05;;;;;;;10.07;3.20;;;;;;;20.90;27.96;100400.59;4214629;28;20225;-67
2022/05/05 11:39:33;;;;;;;8.07;2.90;;;;;;;20.87;27.78;100407.28;4201316;28;20240;-66
2022/05/05 11:42:02;;;;;;;10.07;2.87;;;;;;;20.76;28.17;100399.00;4190884;28;20285;-66
2022/05/05 11:44:28;;;;;;;9.90;3.10;;;;;;;20.81;28.31;100405.44;4186425;28;22294;-67
2022/05/05 11:47:17;;;;;;;9.47;2.60;;;;;;;20.81;27.80;100397.31;4181669;28;20249;-67
2022/05/05 11:49:52;;;;;;;6.57;3.20;;;;;;;20.86;28.01;100402.91;4175458;28;20237;-69
2022/05/05 11:52:19;;;;;;;17.27;3.03;;;;;;;20.79;28.25;100399.41;4203549;28;20403;-71
2022/05/05 11:54:51;;;;;;;9.70;3.30;;;;;;;20.56;28.51;100394.47;4184183;28;25443;-71
2022/05/05 11:57:34;;;;;;;11.23;2.73;;;;;;;20.52;28.66;100390.50;4188264;28;21803;-68
2022/05/05 12:02:46;;;;;;;7.77;2.90;;;;;;;20.76;28.98;100385.47;4212102;28;20386;-68
2022/05/05 12:05:15;;;;;;;7.33;3.03;;;;;;;21.00;28.23;100384.75;4180079;28;20586;-67
2022/05/05 12:07:44;;;;;;;6.13;2.80;;;;;;;20.74;28.29;100374.84;4183571;28;20230;-68
2022/05/05 12:10:14;;;;;;;12.20;3.20;;;;;;;20.73;28.51;100372.38;4173593;28;25171;-68
2022/05/05 12:12:45;;;;;;;10.20;3.20;;;;;;;21.05;28.32;100373.31;4222742;28;21138;-68
2022/05/05 12:15:12;;;;;;;9.03;3.10;;;;;;;21.18;28.41;100372.38;4182573;28;21315;-67
2022/05/05 12:17:45;;;;;;;7.97;2.90;;;;;;;21.32;27.62;100368.56;4188924;28;20240;-69